Time;durP1;ratioP1;P1;durP2;ratioP2;P2;SDS_P1;SDS_P2;PMS_P1;PMS_P2;Temp;Humidity;BMP_temperature;BMP_pressure;BME280_temperature;BME280_humidity;BME280_pressure;Samples;Min_cycle;Max_cycle;Signal;HPM_P1;HPM_P2
2021/12/18 00:00:58;;;;;;;24.50;15.98;;;4.70;82.10;;;3.61;69.71;96564.13;5035368;28;20299;-83
2021/12/18 00:03:25;;;;;;;27.65;16.70;;;4.70;82.10;;;3.56;69.69;96568.81;5052498;28;20219;-83
2021/12/18 00:05:53;;;;;;;24.48;16.08;;;4.70;82.20;;;3.61;69.74;96577.13;5035674;28;20297;-83
2021/12/18 00:08:20;;;;;;;27.67;16.75;;;4.70;82.20;;;3.60;69.59;96576.28;5035527;28;20648;-84
2021/12/18 00:10:48;;;;;;;24.05;15.45;;;4.70;82.20;;;3.60;69.82;96580.63;5019525;28;20230;-83
2021/12/18 00:13:16;;;;;;;27.02;16.83;;;4.70;82.10;;;3.57;69.66;96586.06;5035273;28;20596;-83
2021/12/18 00:15:43;;;;;;;27.15;15.32;;;4.70;82.20;;;3.62;69.69;96607.31;5052000;28;20762;-83
2021/12/18 00:18:11;;;;;;;22.85;15.35;;;4.70;82.20;;;3.61;69.95;96609.06;5035259;28;20281;-84
2021/12/18 00:20:38;;;;;;;27.00;17.08;;;4.60;82.20;;;3.64;69.76;96608.06;5051236;28;20230;-84
2021/12/18 00:23:06;;;;;;;23.40;15.23;;;4.70;82.40;;;3.67;69.73;96625.97;5051878;28;20204;-83
2021/12/18 00:25:34;;;;;;;28.55;16.67;;;4.70;82.50;;;3.71;69.92;96621.41;5051825;28;20314;-84
2021/12/18 00:28:01;;;;;;;25.17;15.30;;;4.70;82.60;;;3.74;69.82;96622.03;5051926;28;20218;-84
2021/12/18 00:30:28;;;;;;;24.80;16.20;;;4.70;82.60;;;3.74;69.87;96610.84;5035088;28;20285;-82
2021/12/18 00:32:56;;;;;;;24.88;15.93;;;4.70;82.50;;;3.80;69.34;96620.78;5068546;28;20204;-84
2021/12/18 00:35:23;;;;;;;26.08;16.33;;;4.70;82.50;;;3.78;69.64;96615.69;5051796;28;20269;-84
2021/12/18 00:37:50;;;;;;;31.35;18.05;;;4.80;82.50;;;3.80;70.14;96608.63;5067998;28;20192;-83
2021/12/18 00:40:22;;;;;;;27.33;17.35;;;4.80;82.50;;;3.79;70.07;96606.97;5034964;28;20258;-83
2021/12/18 00:42:58;;;;;;;27.38;17.15;;;4.80;82.50;;;3.87;69.93;96606.44;5036174;28;20250;-83
2021/12/18 00:45:26;;;;;;;26.30;15.88;;;4.80;82.70;;;3.93;70.07;96610.34;5036304;28;20750;-83
2021/12/18 00:47:53;;;;;;;25.20;15.73;;;4.80;82.70;;;3.94;70.07;96592.09;5035092;28;20737;-83
2021/12/18 00:50:30;;;;;;;25.17;16.52;;;4.90;82.80;;;3.96;69.74;96585.00;5018209;28;20222;-84
2021/12/18 00:52:57;;;;;;;24.65;16.40;;;4.90;82.90;;;4.04;69.83;96591.41;5051342;28;20195;-83
2021/12/18 00:55:24;;;;;;;28.27;16.10;;;4.90;82.70;;;4.05;69.61;96588.69;5039306;28;20697;-84
2021/12/18 00:57:52;;;;;;;27.10;17.13;;;5.00;82.80;;;3.97;69.63;96576.28;5039091;28;20204;-84
2021/12/18 01:00:24;;;;;;;28.35;16.75;;;5.00;82.70;;;3.99;69.71;96568.38;5068838;28;20255;-84
2021/12/18 01:03:00;;;;;;;26.33;16.33;;;5.00;82.50;;;4.04;69.54;96581.88;5051960;28;20242;-84
2021/12/18 01:05:31;;;;;;;23.92;15.57;;;5.10;82.50;;;4.00;69.44;96570.88;5035744;28;20698;-84
2021/12/18 01:07:59;;;;;;;28.10;17.10;;;5.00;82.40;;;3.99;69.42;96579.59;5052090;28;20260;-83
2021/12/18 01:13:19;;;;;;;24.13;15.68;;;5.00;82.10;;;3.83;69.61;96569.50;5041538;28;20287;-82
2021/12/18 01:15:54;;;;;;;28.52;17.10;;;5.00;82.10;;;3.83;69.53;96584.22;5040032;28;20251;-82
2021/12/18 01:23:53;;;;;;;26.05;16.25;;;4.90;81.90;;;3.69;69.44;96583.41;5074319;28;20200;-83
2021/12/18 01:26:21;;;;;;;25.50;16.20;;;4.80;81.80;;;3.67;69.53;96581.88;5038318;28;20597;-83
2021/12/18 01:28:48;;;;;;;23.83;15.70;;;4.80;81.90;;;3.60;69.29;96578.88;5037330;28;20189;-83
2021/12/18 01:31:15;;;;;;;27.85;16.63;;;4.80;81.80;;;3.61;69.68;96579.72;5035219;28;20196;-84
2021/12/18 01:33:42;;;;;;;25.70;15.20;;;4.80;82.00;;;3.57;69.53;96586.88;5051784;28;20576;-84
2021/12/18 01:36:10;;;;;;;28.75;16.77;;;4.70;82.00;;;3.61;69.84;96595.28;5036823;28;20259;-84
2021/12/18 01:38:37;;;;;;;24.90;15.57;;;4.70;82.20;;;3.61;69.61;96593.50;5038600;28;20729;-83
2021/12/18 01:41:04;;;;;;;25.20;15.52;;;4.70;82.30;;;3.64;69.75;96601.09;5018089;28;20765;-83
2021/12/18 01:54:40;;;;;;;26.15;14.43;;;4.70;82.40;;;3.61;69.69;96601.28;5040691;28;20230;-83
2021/12/18 01:57:07;;;;;;;22.88;14.07;;;4.70;82.50;;;3.57;69.64;96591.25;5020434;28;20288;-83
2021/12/18 01:59:40;;;;;;;25.15;15.25;;;4.60;82.40;;;3.65;70.12;96587.19;5017584;28;20220;-82
2021/12/18 02:02:07;;;;;;;27.15;15.25;;;4.70;82.60;;;3.68;69.91;96581.75;5080844;28;20193;-84
2021/12/18 02:04:35;;;;;;;25.52;14.80;;;4.70;82.60;;;3.69;69.82;96575.63;5034076;28;20221;-83
2021/12/18 02:07:04;;;;;;;22.30;15.00;;;4.70;82.60;;;3.72;70.08;96577.19;5034206;28;20548;-83
2021/12/18 02:12:20;;;;;;;22.08;14.05;;;4.80;82.70;;;3.71;69.91;96567.75;5038381;28;20204;-82
2021/12/18 02:21:06;;;;;;;23.42;14.27;;;4.80;82.80;;;3.83;70.06;96576.44;5051589;28;20219;-83
2021/12/18 02:23:08;;;;;;;23.38;13.90;;;4.80;82.80;;;3.77;69.83;96572.53;5022755;28;20195;-82
2021/12/18 02:25:37;;;;;;;20.08;13.88;;;4.80;82.80;;;3.89;69.90;96572.56;5025140;28;20299;-82
2021/12/18 02:28:12;;;;;;;19.98;13.00;;;4.80;82.70;;;3.88;69.76;96568.31;5033353;28;20751;-82
2021/12/18 02:30:40;;;;;;;22.83;14.05;;;4.80;82.60;;;3.89;69.78;96573.41;5057816;28;20322;-82
2021/12/18 02:33:07;;;;;;;21.13;13.63;;;4.90;82.70;;;3.88;69.39;96566.53;5049564;28;20203;-83
2021/12/18 02:35:43;;;;;;;22.90;13.73;;;4.90;82.60;;;3.87;69.69;96562.31;5032115;28;20259;-82
2021/12/18 02:38:20;;;;;;;22.58;13.65;;;4.90;82.50;;;3.87;69.36;96564.91;5035044;28;20581;-83
2021/12/18 02:41:01;;;;;;;19.95;12.80;;;4.90;82.50;;;3.85;69.42;96565.00;5029953;28;20269;-82
2021/12/18 02:43:35;;;;;;;20.90;13.45;;;5.00;82.50;;;3.84;69.73;96565.97;5069105;28;20256;-83
2021/12/18 02:46:07;;;;;;;23.40;13.05;;;4.90;82.40;;;3.81;69.65;96573.94;5066635;28;20254;-82
2021/12/18 02:48:41;;;;;;;20.90;12.80;;;4.90;82.30;;;3.82;69.53;96573.00;5067572;28;20242;-83
2021/12/18 02:51:11;;;;;;;19.08;12.45;;;4.90;82.40;;;3.81;69.76;96560.97;5033781;28;20223;-81
2021/12/18 02:53:43;;;;;;;20.05;13.32;;;4.90;82.40;;;3.76;69.50;96554.44;5032319;28;20216;-82
2021/12/18 02:56:12;;;;;;;19.45;12.23;;;4.90;82.40;;;3.76;69.34;96559.63;5034274;28;20196;-83
2021/12/18 02:58:43;;;;;;;19.27;12.45;;;4.80;82.20;;;3.78;69.14;96568.16;5034996;28;20202;-82
2021/12/18 03:01:14;;;;;;;21.17;13.32;;;4.80;82.10;;;3.71;69.45;96564.31;5051624;28;20255;-82
2021/12/18 03:03:42;;;;;;;21.33;12.60;;;4.80;82.10;;;3.67;69.15;96561.97;5034254;28;20259;-82
2021/12/18 03:25:18;;;;;;;17.48;11.32;;;4.70;82.40;;;3.71;69.87;96572.09;5045928;28;20692;-82
2021/12/18 03:27:46;;;;;;;22.42;12.15;;;4.70;82.40;;;3.74;69.93;96567.53;5036488;28;20216;-82
2021/12/18 03:30:15;;;;;;;18.70;11.18;;;4.70;82.80;;;3.78;69.78;96565.56;5049451;28;20331;-83
2021/12/18 03:32:43;;;;;;;18.50;12.23;;;4.80;82.50;;;3.82;69.65;96562.63;5050985;28;20314;-83
2021/12/18 03:35:12;;;;;;;20.42;13.02;;;4.80;82.60;;;3.85;69.74;96575.38;5064805;28;20298;-84
2021/12/18 03:37:39;;;;;;;20.70;12.60;;;4.80;82.60;;;3.86;69.71;96573.63;5032881;28;20453;-83
2021/12/18 03:40:12;;;;;;;17.33;11.23;;;4.80;82.60;;;3.88;69.40;96576.09;5032899;28;20220;-83
2021/12/18 03:42:39;;;;;;;17.08;11.32;;;4.80;82.60;;;3.91;69.72;96574.13;5049275;28;20658;-83
2021/12/18 03:45:08;;;;;;;17.42;11.45;;;4.80;82.60;;;3.88;69.78;96560.53;5032072;28;20230;-83
2021/12/18 03:47:36;;;;;;;19.38;11.13;;;4.80;82.50;;;3.95;69.63;96566.94;5032571;28;20601;-84
2021/12/18 03:50:05;;;;;;;16.25;11.20;;;4.90;82.60;;;3.96;69.69;96563.41;5032529;28;20217;-83
2021/12/18 03:52:32;;;;;;;17.25;11.77;;;4.90;82.60;;;3.98;69.45;96579.72;5050185;28;20196;-83
2021/12/18 03:54:59;;;;;;;18.17;11.43;;;4.90;83.40;;;3.96;69.15;96568.59;5018784;28;20224;-82
2021/12/18 03:57:27;;;;;;;17.42;10.68;;;4.90;82.50;;;4.00;69.28;96567.44;5018302;28;20650;-83
2021/12/18 03:59:55;;;;;;;18.00;10.82;;;4.90;82.60;;;4.02;69.15;96568.16;5001463;28;20270;-83
2021/12/18 04:02:22;;;;;;;13.80;10.25;;;5.00;82.60;;;4.04;69.50;96565.47;5002194;28;20262;-83
2021/12/18 04:04:49;;;;;;;17.55;11.73;;;4.90;82.50;;;4.04;69.65;96574.09;5026880;28;20662;-82
2021/12/18 04:07:17;;;;;;;18.05;11.18;;;4.90;82.50;;;4.01;69.38;96577.72;5047493;28;20685;-84
2021/12/18 04:09:47;;;;;;;16.63;10.75;;;5.00;82.50;;;3.98;69.35;96569.34;5034434;28;20211;-82
2021/12/18 04:12:14;;;;;;;15.85;10.77;;;5.00;82.50;;;4.01;69.34;96574.28;5067451;28;20235;-84
2021/12/18 04:14:41;;;;;;;15.23;9.85;;;5.00;82.50;;;4.03;69.19;96575.03;5067471;28;20306;-83
2021/12/18 04:17:08;;;;;;;16.60;10.73;;;5.00;82.40;;;4.00;69.29;96573.47;5048111;28;20235;-82
2021/12/18 04:19:36;;;;;;;16.77;10.63;;;5.00;82.40;;;4.03;69.55;96572.44;5050796;28;20236;-82
2021/12/18 04:22:04;;;;;;;18.40;10.40;;;5.00;82.40;;;4.05;69.42;96572.31;5034147;28;20184;-83
2021/12/18 04:24:31;;;;;;;16.02;10.32;;;5.00;82.40;;;4.05;69.60;96577.50;5018060;28;20251;-83
2021/12/18 04:26:58;;;;;;;13.93;9.98;;;5.00;82.50;;;4.08;69.54;96577.28;5051249;28;20697;-82
2021/12/18 04:29:25;;;;;;;13.57;9.30;;;5.00;82.50;;;4.07;69.32;96575.63;5050267;28;20208;-82
2021/12/18 04:31:52;;;;;;;15.32;10.15;;;5.00;82.50;;;4.10;69.23;96580.59;5083007;28;20211;-82
2021/12/18 04:34:19;;;;;;;15.85;10.00;;;5.00;82.50;;;4.08;69.47;96579.91;5028884;28;20228;-83
2021/12/18 04:36:46;;;;;;;15.90;10.80;;;5.00;82.50;;;4.12;69.28;96584.72;5018280;28;20231;-83
2021/12/18 04:39:13;;;;;;;15.25;9.68;;;5.10;83.30;;;4.12;69.55;96573.53;5033410;28;20207;-83
2021/12/18 04:41:47;;;;;;;16.33;10.35;;;5.20;82.50;;;4.16;69.21;96578.41;5050210;28;20227;-83
2021/12/18 04:44:15;;;;;;;16.67;10.32;;;5.10;82.50;;;4.14;68.94;96582.88;5030983;28;20681;-84
2021/12/18 04:46:42;;;;;;;16.50;10.50;;;5.10;82.50;;;4.11;68.87;96580.50;4997517;28;20307;-83
2021/12/18 04:49:09;;;;;;;14.80;9.75;;;5.10;82.50;;;4.16;69.40;96591.38;5030102;28;20308;-84
2021/12/18 04:51:38;;;;;;;15.18;10.27;;;5.10;82.50;;;4.12;69.24;96592.53;5063373;28;20201;-84
2021/12/18 04:54:06;;;;;;;16.83;10.63;;;5.10;82.40;;;4.15;69.22;96596.66;5039655;28;20227;-83
2021/12/18 04:56:33;;;;;;;18.38;11.48;;;5.20;82.40;;;4.15;68.86;96597.50;5032806;28;20659;-83
2021/12/18 04:59:00;;;;;;;16.27;10.40;;;5.10;82.30;;;4.16;69.26;96593.97;5032847;28;20658;-83
2021/12/18 05:01:28;;;;;;;15.40;10.05;;;5.10;82.30;;;4.18;69.03;96595.63;5049571;28;20199;-84
2021/12/18 05:03:55;;;;;;;15.38;10.25;;;5.10;82.30;;;4.14;69.11;96593.25;5049171;28;20255;-83
2021/12/18 05:06:23;;;;;;;17.65;11.23;;;5.10;82.30;;;4.16;68.93;96603.53;5033421;28;20216;-83
2021/12/18 05:08:50;;;;;;;16.05;9.98;;;5.10;82.30;;;4.16;69.29;96603.53;5034664;28;20200;-84
2021/12/18 05:11:18;;;;;;;15.55;10.48;;;5.10;82.20;;;4.16;68.88;96601.78;5034972;28;20238;-82
2021/12/18 05:13:45;;;;;;;34.28;17.83;;;5.10;82.20;;;4.20;69.21;96614.53;5018112;28;20684;-83
2021/12/18 05:16:13;;;;;;;18.98;12.52;;;5.20;82.30;;;4.20;69.07;96611.91;5031314;28;20203;-83
2021/12/18 05:18:40;;;;;;;26.05;14.70;;;5.10;82.20;;;4.16;69.13;96600.91;5064733;28;20201;-84
2021/12/18 05:21:07;;;;;;;16.70;10.55;;;5.10;82.10;;;4.22;68.83;96603.06;5051388;28;20207;-83
2021/12/18 05:23:34;;;;;;;15.90;10.38;;;5.10;82.10;;;4.19;69.13;96598.13;5049827;28;20224;-80
2021/12/18 05:26:04;;;;;;;14.88;9.80;;;5.20;82.10;;;4.19;68.96;96597.28;5034517;28;20228;-81
2021/12/18 05:28:32;;;;;;;14.93;8.90;;;5.20;82.90;;;4.19;68.91;96605.06;5034569;28;20234;-84
2021/12/18 05:30:59;;;;;;;16.60;8.98;;;5.10;82.00;;;4.19;69.09;96600.72;5066921;28;20266;-82
2021/12/18 05:33:26;;;;;;;15.07;9.70;;;5.20;82.10;;;4.19;69.10;96610.25;5034316;28;20575;-81
2021/12/18 05:35:54;;;;;;;13.55;8.90;;;5.20;82.10;;;4.20;68.92;96610.16;5051079;28;20204;-83
2021/12/18 05:38:21;;;;;;;13.27;10.13;;;5.10;82.10;;;4.18;68.68;96612.03;5067293;28;20597;-82
2021/12/18 05:40:48;;;;;;;16.70;9.23;;;5.10;82.10;;;4.16;68.58;96613.91;5035703;28;20245;-82
2021/12/18 05:43:15;;;;;;;14.90;8.65;;;5.20;82.00;;;4.16;68.76;96613.91;5037945;28;20261;-82
2021/12/18 05:45:42;;;;;;;15.82;10.20;;;5.20;82.00;;;4.13;nan;96609.75;5047520;28;20328;-81
2021/12/18 05:48:10;;;;;;;15.20;9.68;;;5.10;81.80;;;4.09;68.50;96607.50;5056739;28;20251;-82
2021/12/18 05:50:37;;;;;;;14.75;9.50;;;5.10;81.80;;;4.07;68.71;96609.38;5026352;28;20212;-82
2021/12/18 05:53:05;;;;;;;14.88;10.13;;;5.10;81.80;;;4.03;68.87;96601.00;5035678;28;20188;-83
2021/12/18 05:55:32;;;;;;;14.23;9.77;;;5.10;81.90;;;4.04;68.80;96597.47;5052031;28;20216;-82
2021/12/18 05:58:00;;;;;;;13.57;9.15;;;5.10;81.90;;;3.99;68.99;96594.34;5035527;28;20203;-81
2021/12/18 06:00:27;;;;;;;13.13;9.00;;;5.00;81.80;;;4.00;68.80;96602.03;5035080;28;20765;-83
2021/12/18 06:02:54;;;;;;;12.63;9.10;;;5.00;81.80;;;3.98;69.04;96603.91;5035101;28;20231;-83
2021/12/18 06:05:21;;;;;;;13.52;9.57;;;5.00;81.80;;;3.99;68.73;96612.50;5035388;28;20212;-81
2021/12/18 06:07:58;;;;;;;18.85;11.13;;;5.10;82.00;;;3.98;68.97;96606.50;5008193;28;20255;-82
2021/12/18 06:10:28;;;;;;;19.15;9.68;;;5.00;82.00;;;3.99;69.28;96607.31;5051593;28;20243;-82
2021/12/18 06:12:57;;;;;;;14.75;10.20;;;5.00;82.00;;;3.99;69.24;96605.56;5021151;28;20275;-82
2021/12/18 06:15:25;;;;;;;14.15;9.65;;;5.10;82.10;;;4.03;69.38;96608.78;5024714;28;20286;-83
2021/12/18 06:17:53;;;;;;;16.02;10.27;;;5.00;82.10;;;4.01;69.04;96618.44;5020550;28;20196;-82
2021/12/18 06:20:21;;;;;;;15.00;9.90;;;5.00;82.10;;;4.04;68.67;96617.38;5036998;28;20269;-82
2021/12/18 06:22:48;;;;;;;16.02;10.30;;;5.00;82.10;;;4.04;69.02;96607.84;5037613;28;20204;-82
2021/12/18 06:25:15;;;;;;;15.35;9.93;;;5.00;82.10;;;4.04;68.70;96607.00;5032881;28;20227;-81
2021/12/18 06:27:42;;;;;;;14.98;10.43;;;5.00;82.00;;;4.04;68.65;96607.00;5069090;28;20227;-83
2021/12/18 06:30:10;;;;;;;18.23;10.30;;;5.00;82.00;;;4.00;68.82;96607.22;5033559;28;20316;-82
2021/12/18 06:32:39;;;;;;;16.42;9.55;;;5.00;81.90;;;3.98;68.50;96605.69;5084328;28;20655;-82
2021/12/18 06:35:08;;;;;;;12.98;9.32;;;5.00;81.80;;;3.92;68.37;96609.53;5053242;28;20223;-83
2021/12/18 06:37:36;;;;;;;15.27;9.75;;;5.00;81.70;;;3.88;68.64;96612.44;5036717;28;20259;-81
2021/12/18 06:40:05;;;;;;;15.00;9.70;;;4.90;81.60;;;3.79;68.56;96614.75;5036740;28;20697;-83
2021/12/18 06:42:39;;;;;;;15.25;10.60;;;4.90;81.50;;;3.73;68.36;96609.97;5037148;28;20631;-82
2021/12/18 06:45:08;;;;;;;15.35;10.88;;;4.90;81.40;;;3.68;68.47;96612.06;5053231;28;20298;-83
2021/12/18 06:47:35;;;;;;;15.20;10.38;;;4.80;81.30;;;3.57;68.37;96601.63;5036317;28;20643;-81
2021/12/18 06:50:05;;;;;;;18.92;10.32;;;4.80;81.30;;;3.56;68.71;96610.34;5053320;28;20586;-82
2021/12/18 06:52:33;;;;;;;15.80;10.90;;;4.80;81.40;;;3.50;68.95;96599.47;5033900;28;20201;-82
2021/12/18 06:55:00;;;;;;;15.40;9.23;;;4.70;81.40;;;3.43;68.75;96598.22;5036664;28;20262;-82
2021/12/18 06:57:28;;;;;;;18.15;10.98;;;4.60;81.20;;;3.41;69.05;96594.88;5069005;28;20204;-82
2021/12/18 06:59:55;;;;;;;14.90;9.27;;;4.60;81.40;;;3.37;68.94;96596.06;5036226;28;20575;-81
2021/12/18 07:02:22;;;;;;;15.05;9.13;;;4.60;81.40;;;3.33;68.82;96591.97;5035071;28;20231;-83
2021/12/18 07:04:49;;;;;;;13.93;8.65;;;4.50;82.20;;;3.35;68.86;96603.91;5045800;28;20285;-81
2021/12/18 07:07:17;;;;;;;13.40;9.00;;;4.60;81.60;;;3.33;69.08;96603.22;5019636;28;20224;-82
2021/12/18 07:09:44;;;;;;;15.77;9.95;;;4.50;81.60;;;3.32;69.13;96596.34;5019213;28;20216;-82
2021/12/18 07:12:11;;;;;;;15.50;9.52;;;4.50;81.70;;;3.28;68.83;96591.47;5035685;28;20265;-83
2021/12/18 07:14:39;;;;;;;16.73;9.63;;;4.40;81.60;;;3.28;68.86;96588.88;5035330;28;20216;-83
2021/12/18 07:17:06;;;;;;;14.40;9.55;;;4.40;81.60;;;3.26;69.19;96596.78;5051334;28;20204;-82
2021/12/18 07:19:34;;;;;;;15.43;9.23;;;4.40;81.60;;;3.28;69.06;96594.06;5052375;28;20258;-81
2021/12/18 07:22:01;;;;;;;14.88;9.95;;;4.40;81.70;;;3.23;69.25;96590.97;5035930;28;20196;-82
2021/12/18 07:24:29;;;;;;;16.63;10.45;;;4.40;81.80;;;3.27;69.17;96595.00;5042995;28;20311;-82
2021/12/18 07:26:57;;;;;;;14.48;9.80;;;4.40;81.90;;;3.29;69.18;96598.31;5035088;28;20215;-82
2021/12/18 07:29:24;;;;;;;13.52;9.93;;;4.30;81.90;;;3.29;69.25;96600.91;5035483;28;20239;-82
2021/12/18 07:31:52;;;;;;;15.82;9.10;;;4.30;81.90;;;3.29;69.30;96593.13;5035496;28;20204;-82
2021/12/18 07:34:20;;;;;;;13.02;9.05;;;4.40;82.00;;;3.32;69.57;96596.34;5035660;28;20211;-83
2021/12/18 07:36:47;;;;;;;15.70;9.80;;;4.40;82.10;;;3.32;69.44;96593.75;5035076;28;20208;-84
2021/12/18 07:39:15;;;;;;;15.55;9.40;;;4.40;82.10;;;3.32;69.56;96590.31;5035559;28;20308;-82
2021/12/18 07:41:42;;;;;;;14.15;8.98;;;4.40;82.20;;;3.33;69.19;96592.84;5035690;28;20196;-82
2021/12/18 07:44:09;;;;;;;16.55;8.70;;;4.40;82.10;;;3.38;69.44;96591.69;5033893;28;20215;-81
2021/12/18 07:46:38;;;;;;;15.90;10.02;;;4.40;82.10;;;3.39;69.19;96596.75;5035539;28;20642;-82
2021/12/18 07:49:08;;;;;;;13.48;9.35;;;4.40;82.20;;;3.40;69.54;96582.84;5034492;28;20283;-81
2021/12/18 07:51:36;;;;;;;12.48;8.98;;;4.40;82.20;;;3.45;69.22;96590.31;5034486;28;20200;-82
2021/12/18 07:54:05;;;;;;;14.25;9.00;;;4.50;82.30;;;3.46;69.23;96592.81;5035162;28;20188;-83
2021/12/18 07:56:34;;;;;;;12.52;7.82;;;4.40;82.20;;;3.50;69.07;96593.41;5032485;28;20725;-83
2021/12/18 07:59:02;;;;;;;13.80;8.05;;;4.40;82.10;;;3.47;69.03;96589.28;5048469;28;20654;-83
2021/12/18 08:01:30;;;;;;;10.02;7.80;;;4.50;82.10;;;3.51;69.28;96588.13;5015612;28;20251;-82
2021/12/18 08:03:57;;;;;;;12.30;8.05;;;4.50;82.10;;;3.52;68.90;96587.19;5014525;28;20207;-81
2021/12/18 08:06:25;;;;;;;11.98;7.18;;;4.50;82.00;;;3.55;69.00;96591.34;5071495;28;20220;-82
2021/12/18 08:08:52;;;;;;;11.55;7.03;;;4.50;81.90;;;3.56;nan;96584.41;5034975;28;20192;-82
2021/12/18 08:11:20;;;;;;;12.55;7.60;;;4.50;81.90;;;3.60;68.97;96588.41;5035213;28;20585;-82
2021/12/18 08:13:48;;;;;;;14.32;6.88;;;4.60;82.00;;;3.61;68.90;96593.50;5035091;28;20195;-82
2021/12/18 08:16:16;;;;;;;12.50;7.65;;;4.50;81.90;;;3.66;69.21;96591.44;5034658;28;20245;-81
2021/12/18 08:18:43;;;;;;;9.70;6.75;;;4.60;82.00;;;3.70;68.97;96594.66;5033696;28;20678;-82
2021/12/18 08:21:10;;;;;;;12.55;7.53;;;4.60;82.10;;;3.71;68.96;96579.88;5034597;28;20242;-82
2021/12/18 08:23:37;;;;;;;11.32;7.20;;;4.60;82.20;;;3.85;68.57;96600.50;5034378;28;20273;-81
2021/12/18 08:26:05;;;;;;;10.05;6.97;;;4.70;82.20;;;3.89;68.55;96593.34;5018374;28;20715;-81
2021/12/18 08:28:32;;;;;;;15.32;7.70;;;4.80;82.20;;;3.94;68.02;96588.66;5018466;28;20196;-80
2021/12/18 08:30:59;;;;;;;10.55;6.95;;;4.80;82.00;;;3.99;68.03;96592.59;5034600;28;20256;-80
2021/12/18 08:33:26;;;;;;;10.70;6.53;;;4.80;81.90;;;4.02;67.13;96594.13;5030267;28;20287;-81
2021/12/18 08:35:54;;;;;;;10.05;7.07;;;4.90;81.80;;;4.04;67.57;96575.84;5047470;28;20224;-82
2021/12/18 08:38:21;;;;;;;11.35;7.57;;;4.90;81.80;;;4.18;67.86;96591.25;5064356;28;20201;-80
2021/12/18 08:40:50;;;;;;;9.50;6.70;;;4.90;81.70;;;4.21;67.53;96596.25;5083052;28;20224;-81
2021/12/18 08:43:17;;;;;;;9.75;7.10;;;5.00;81.70;;;4.26;67.20;96595.91;5033611;28;20193;-81
2021/12/18 08:45:44;;;;;;;11.93;7.35;;;5.10;81.70;;;4.28;67.14;96592.25;5033813;28;20281;-82
2021/12/18 08:48:11;;;;;;;13.07;7.53;;;5.10;81.60;;;4.33;66.93;96597.97;5034508;28;20246;-82
2021/12/18 08:50:39;;;;;;;10.73;7.07;;;5.10;81.50;;;4.36;67.05;96596.06;5034523;28;20212;-82
2021/12/18 08:53:07;;;;;;;14.25;8.05;;;5.20;81.50;;;4.41;67.03;96593.97;5034227;28;20270;-82
2021/12/18 08:55:35;;;;;;;15.70;7.55;;;5.20;81.30;;;4.43;67.10;96594.69;5034447;28;20231;-82
2021/12/18 08:58:03;;;;;;;10.55;6.80;;;5.30;81.40;;;4.52;66.74;96601.81;5050847;28;20245;-82
2021/12/18 09:00:31;;;;;;;13.55;7.43;;;5.30;81.30;;;4.56;66.64;96607.63;5033333;28;20239;-82
2021/12/18 09:03:00;;;;;;;11.43;7.43;;;5.30;81.30;;;4.60;66.79;96601.25;5034097;28;20203;-82
2021/12/18 09:05:29;;;;;;;10.48;7.53;;;5.40;81.10;;;4.61;66.19;96608.94;5034125;28;20228;-82
2021/12/18 09:07:57;;;;;;;12.73;7.88;;;5.40;81.10;;;4.59;66.36;96603.03;5017761;28;20302;-83
2021/12/18 09:10:25;;;;;;;11.35;7.57;;;5.40;81.10;;;4.68;66.33;96605.91;5034241;28;20273;-82
2021/12/18 09:12:54;;;;;;;11.65;7.55;;;5.50;81.10;;;4.72;66.31;96602.94;5034381;28;20223;-82
2021/12/18 09:15:22;;;;;;;12.50;7.97;;;5.50;81.00;;;4.73;65.89;96608.97;5034480;28;20219;-83
2021/12/18 09:17:49;;;;;;;11.45;7.75;;;5.60;80.80;;;4.74;65.37;96621.03;5038716;28;20223;-82
2021/12/18 09:20:17;;;;;;;11.18;7.35;;;5.60;80.80;;;4.79;65.49;96598.94;5053004;28;20220;-82
2021/12/18 09:22:44;;;;;;;12.32;8.07;;;5.60;80.60;;;4.81;65.20;96598.84;5038204;28;20238;-82
2021/12/18 09:25:13;;;;;;;10.52;7.10;;;5.70;80.50;;;4.88;64.90;96605.25;5037390;28;20228;-82
2021/12/18 09:27:40;;;;;;;10.43;7.50;;;5.60;80.50;;;4.91;65.27;96596.38;5037342;28;20222;-84
2021/12/18 09:30:12;;;;;;;11.18;7.28;;;5.70;81.40;;;4.94;65.13;96590.94;5044462;28;20699;-83
2021/12/18 09:32:40;;;;;;;10.10;6.68;;;5.70;80.30;;;4.99;65.05;96599.22;5051874;28;20729;-83
2021/12/18 09:35:10;;;;;;;8.32;6.57;;;5.70;81.10;;;5.04;65.29;96591.06;5034977;28;20208;-83
2021/12/18 09:37:37;;;;;;;10.95;6.60;;;5.80;80.30;;;5.09;65.30;96599.34;5027369;28;20208;-82
2021/12/18 09:40:07;;;;;;;9.82;6.47;;;5.80;80.30;;;5.12;64.78;96599.13;5038478;28;20212;-83
2021/12/18 09:42:37;;;;;;;11.07;6.68;;;5.90;80.10;;;5.05;64.54;96577.13;5021795;28;20646;-83
2021/12/18 09:45:06;;;;;;;8.43;6.22;;;5.90;79.90;;;5.17;64.66;96594.41;5037640;28;20277;-82
2021/12/18 09:47:34;;;;;;;7.78;5.72;;;5.90;79.80;;;5.20;64.51;96577.72;5037923;28;20656;-84
2021/12/18 09:50:01;;;;;;;8.35;5.10;;;6.00;79.80;;;5.22;64.01;96578.44;5038150;28;20212;-83
2021/12/18 09:52:30;;;;;;;7.03;5.50;;;6.00;79.60;;;5.23;64.00;96574.91;5053806;28;20196;-83
2021/12/18 09:54:58;;;;;;;8.48;5.90;;;6.00;79.50;;;5.19;64.04;96579.53;5037735;28;20606;-83
2021/12/18 09:57:26;;;;;;;10.18;5.45;;;6.00;79.30;;;5.17;62.87;96583.19;5037712;28;20258;-82
2021/12/18 09:59:53;;;;;;;7.97;5.72;;;6.10;78.80;;;5.15;63.44;96569.47;5037187;28;20729;-83
2021/12/18 10:02:20;;;;;;;8.55;6.18;;;6.00;78.90;;;5.13;63.12;96564.38;5021492;28;20204;-83
2021/12/18 10:04:48;;;;;;;6.97;5.63;;;6.00;78.70;;;5.13;63.40;96560.00;5037422;28;20307;-83
2021/12/18 10:07:17;;;;;;;8.00;5.25;;;6.00;78.70;;;5.13;63.10;96560.00;5037812;28;20251;-82
2021/12/18 10:09:46;;;;;;;8.00;5.50;;;6.00;78.70;;;5.15;62.84;96561.66;5053596;28;20219;-82
2021/12/18 10:12:21;;;;;;;7.50;5.22;;;6.10;78.70;;;5.14;63.25;96560.84;5036597;28;20246;-83
2021/12/18 10:14:53;;;;;;;7.93;5.72;;;6.00;78.50;;;5.15;63.51;96551.25;5021272;28;20780;-83
2021/12/18 10:17:30;;;;;;;7.75;6.00;;;6.00;78.60;;;5.10;63.19;96562.84;5053060;28;20188;-83
2021/12/18 10:20:21;;;;;;;8.07;5.95;;;6.00;78.50;;;5.06;63.47;96545.81;5037288;28;20254;-82
2021/12/18 10:22:55;;;;;;;8.63;6.63;;;6.20;78.50;;;5.07;63.27;96549.25;5037371;28;20208;-83
2021/12/18 10:25:40;;;;;;;8.55;6.05;;;6.00;78.40;;;5.04;63.35;96547.72;5020884;28;20479;-82
2021/12/18 10:28:17;;;;;;;10.65;6.35;;;6.00;78.30;;;5.03;63.17;96553.00;5037018;28;20265;-82
2021/12/18 10:30:51;;;;;;;7.72;6.15;;;6.00;78.40;;;5.07;63.61;96549.25;5037664;28;20224;-83
2021/12/18 10:33:20;;;;;;;8.00;6.07;;;6.00;78.50;;;5.15;63.64;96557.31;5037469;28;20600;-83
2021/12/18 10:35:50;;;;;;;9.82;5.95;;;6.00;78.70;;;5.10;63.22;96562.84;5053702;28;20219;-83
2021/12/18 10:38:50;;;;;;;9.13;6.30;;;6.00;78.70;;;5.11;63.13;96568.88;5053509;28;20207;-83
2021/12/18 10:41:28;;;;;;;9.45;6.18;;;6.00;78.40;;;5.12;63.33;96554.91;5036981;28;20195;-83
2021/12/18 10:44:08;;;;;;;9.45;5.65;;;6.00;78.40;;;5.18;63.92;96551.84;5053612;28;20204;-83
2021/12/18 10:46:43;;;;;;;8.20;6.10;;;6.00;78.70;;;5.25;64.10;96542.63;5020616;28;20224;-82
2021/12/18 10:49:18;;;;;;;9.57;6.80;;;6.10;79.00;;;5.32;64.16;96545.56;5053323;28;20224;-83
2021/12/18 10:51:56;;;;;;;10.52;6.60;;;6.10;79.00;;;5.44;63.67;96544.66;5021856;28;20275;-83
2021/12/18 10:54:24;;;;;;;9.43;7.13;;;6.20;79.00;;;5.55;63.20;96535.16;5020374;28;20223;-84
2021/12/18 10:56:55;;;;;;;8.93;6.78;;;6.20;79.00;;;5.66;63.18;96532.53;5020301;28;20200;-83
2021/12/18 10:59:27;;;;;;;11.15;7.18;;;6.30;79.20;;;5.82;63.24;96526.13;5053314;28;20215;-83
2021/12/18 11:02:10;;;;;;;10.98;7.05;;;6.40;79.30;;;5.98;63.32;96534.38;5020135;28;20250;-83
2021/12/18 11:04:40;;;;;;;10.63;7.15;;;6.50;79.30;;;6.03;62.49;96523.59;5036846;28;20230;-83
2021/12/18 11:07:29;;;;;;;8.00;6.82;;;6.60;78.70;;;6.12;63.17;96524.66;5036468;28;20659;-82
2021/12/18 11:10:18;;;;;;;10.55;7.80;;;6.60;78.80;;;6.15;61.98;96530.44;5053133;28;20223;-82
2021/12/18 11:15:32;;;;;;;10.32;7.60;;;6.80;78.40;;;6.14;61.79;96513.16;5035266;28;20217;-83
2021/12/18 11:18:00;;;;;;;11.35;8.07;;;6.90;78.60;;;6.15;61.62;96503.56;5054736;28;20184;-82
2021/12/18 11:20:27;;;;;;;11.10;7.88;;;6.90;78.20;;;6.22;62.19;96509.91;5035142;28;20230;-81